createdAt,value
2023-05-23T00:04:17.334Z,21.10
2023-05-23T00:09:19.730Z,20.08
2023-05-23T00:14:21.723Z,20.13
2023-05-23T00:19:23.633Z,21.33
2023-05-23T00:24:25.902Z,18.98
2023-05-23T00:29:27.746Z,19.38
2023-05-23T00:34:29.554Z,19.55
2023-05-23T00:39:31.652Z,17.55
2023-05-23T00:44:36.239Z,18.75
2023-05-23T00:49:38.082Z,18.15
2023-05-23T00:54:40.151Z,17.38
2023-05-23T00:59:43.463Z,16.63
2023-05-23T01:04:45.308Z,17.08
2023-05-23T01:09:47.547Z,18.73
2023-05-23T01:15:06.711Z,16.77
2023-05-23T01:20:12.901Z,18.13
2023-05-23T01:25:42.573Z,16.88
2023-05-23T01:30:47.048Z,18.40
2023-05-23T01:35:49.537Z,18.27
2023-05-23T01:40:51.478Z,16.45
2023-05-23T01:45:57.456Z,15.73
2023-05-23T01:50:59.560Z,15.43
2023-05-23T01:56:03.553Z,15.18
2023-05-23T02:01:05.572Z,14.45
2023-05-23T02:06:07.827Z,14.80
2023-05-23T02:11:10.689Z,14.57
2023-05-23T02:16:14.046Z,14.82
2023-05-23T02:21:15.878Z,14.48
2023-05-23T02:26:18.246Z,14.13
2023-05-23T02:31:20.137Z,14.70
2023-05-23T02:36:21.957Z,14.35
2023-05-23T02:41:23.774Z,13.55
2023-05-23T02:46:26.096Z,13.05
2023-05-23T02:51:27.969Z,13.18
2023-05-23T02:56:29.825Z,11.55
2023-05-23T03:01:31.725Z,12.90
2023-05-23T03:06:36.893Z,13.20
2023-05-23T03:11:38.894Z,14.63
2023-05-23T03:16:40.867Z,15.23
2023-05-23T03:21:44.297Z,14.35
2023-05-23T03:26:46.115Z,15.43
2023-05-23T03:31:47.933Z,14.85
2023-05-23T03:36:50.076Z,15.60
2023-05-23T03:41:51.945Z,15.15
2023-05-23T03:46:53.868Z,16.00
2023-05-23T03:51:55.880Z,16.48
2023-05-23T03:56:57.798Z,16.52
2023-05-23T04:02:01.222Z,16.23
2023-05-23T04:07:03.229Z,15.93
2023-05-23T04:12:06.111Z,15.50
2023-05-23T04:17:09.134Z,15.75
2023-05-23T04:22:10.981Z,15.10
2023-05-23T04:27:13.742Z,14.25
2023-05-23T04:32:19.485Z,14.15
2023-05-23T04:37:26.204Z,11.82
2023-05-23T04:42:29.367Z,10.68
2023-05-23T04:47:37.025Z,10.23
2023-05-23T04:52:39.134Z,10.65
2023-05-23T04:57:41.081Z,10.38
2023-05-23T05:02:43.685Z,9.10
2023-05-23T05:07:45.583Z,10.02
2023-05-23T05:12:49.642Z,8.55
2023-05-23T05:17:51.512Z,8.55
2023-05-23T05:22:58.046Z,8.50
2023-05-23T05:28:06.054Z,9.02
2023-05-23T05:33:08.172Z,9.25
2023-05-23T05:38:11.124Z,9.07
2023-05-23T05:43:12.993Z,7.75
2023-05-23T05:48:14.839Z,8.35
2023-05-23T05:53:17.036Z,7.72
2023-05-23T05:58:19.219Z,8.25
2023-05-23T06:03:21.381Z,9.25
2023-05-23T06:08:23.443Z,8.93
2023-05-23T06:13:25.566Z,10.02
2023-05-23T06:18:27.409Z,9.70
2023-05-23T06:23:29.258Z,10.05
2023-05-23T06:28:31.056Z,10.90
2023-05-23T06:33:36.485Z,10.48
2023-05-23T06:38:38.317Z,10.15
2023-05-23T06:43:40.204Z,9.82
2023-05-23T06:48:42.106Z,11.07
2023-05-23T06:53:44.040Z,9.40
2023-05-23T06:58:47.172Z,8.32
2023-05-23T07:03:49.135Z,7.13
2023-05-23T07:08:51.032Z,7.00
2023-05-23T07:13:52.837Z,6.15
2023-05-23T07:18:54.702Z,5.40
2023-05-23T07:23:56.516Z,4.30
2023-05-23T07:28:58.944Z,3.40
2023-05-23T07:34:01.092Z,4.40
2023-05-23T07:39:02.995Z,4.45
2023-05-23T07:44:04.904Z,3.85
2023-05-23T07:49:06.742Z,4.38
2023-05-23T07:54:08.639Z,3.70
2023-05-23T07:59:10.510Z,4.72
2023-05-23T08:04:12.618Z,4.32
2023-05-23T08:09:14.549Z,4.32
2023-05-23T08:14:16.403Z,4.10
2023-05-23T08:19:18.247Z,4.28
2023-05-23T08:24:21.601Z,4.35
2023-05-23T08:29:23.436Z,4.82
2023-05-23T08:34:25.305Z,4.85
2023-05-23T08:39:27.188Z,4.43
2023-05-23T08:44:29.013Z,5.55
2023-05-23T08:49:31.824Z,5.80
2023-05-23T08:54:34.221Z,5.10
2023-05-23T08:59:37.470Z,5.80
2023-05-23T09:04:39.300Z,5.07
2023-05-23T09:09:41.704Z,4.55
2023-05-23T09:14:44.873Z,4.53
2023-05-23T09:19:49.596Z,3.92
2023-05-23T09:24:53.116Z,4.65
2023-05-23T09:29:55.030Z,4.25
2023-05-23T09:35:04.807Z,4.50
2023-05-23T09:40:11.844Z,4.23
2023-05-23T09:45:15.587Z,5.00
2023-05-23T09:50:17.679Z,4.68
2023-05-23T09:55:19.883Z,4.40
2023-05-23T10:00:23.419Z,4.50
2023-05-23T10:05:31.609Z,4.32
2023-05-23T10:10:34.041Z,4.60
2023-05-23T10:15:40.174Z,4.03
2023-05-23T10:20:47.644Z,4.57
2023-05-23T10:25:51.023Z,4.63
2023-05-23T10:30:53.059Z,5.05
2023-05-23T10:36:05.119Z,4.72
2023-05-23T10:41:20.155Z,4.72
2023-05-23T10:46:22.785Z,4.40
2023-05-23T10:51:25.024Z,4.75
2023-05-23T10:56:31.927Z,4.30
2023-05-23T11:01:39.555Z,3.90
2023-05-23T11:06:44.289Z,3.80
2023-05-23T11:11:57.437Z,4.00
2023-05-23T11:17:20.466Z,4.43
2023-05-23T11:22:27.238Z,3.20
2023-05-23T11:27:38.125Z,3.90
2023-05-23T11:32:40.706Z,2.85
2023-05-23T11:37:44.272Z,4.07
2023-05-23T11:42:46.172Z,3.78
2023-05-23T11:47:48.070Z,2.83
2023-05-23T11:52:53.838Z,2.38
2023-05-23T11:57:57.265Z,2.85
2023-05-23T12:02:59.247Z,2.90
2023-05-23T12:08:01.349Z,2.65
2023-05-23T12:13:04.979Z,2.40
2023-05-23T12:18:08.655Z,3.35
2023-05-23T12:23:19.443Z,3.28
2023-05-23T12:28:43.600Z,2.80
2023-05-23T12:33:48.740Z,2.60
2023-05-23T12:38:51.486Z,2.80
2023-05-23T12:43:57.265Z,2.58
2023-05-23T12:48:59.537Z,3.20
2023-05-23T12:54:02.071Z,2.42
2023-05-23T12:59:04.289Z,3.20
2023-05-23T13:04:06.296Z,2.75
2023-05-23T13:09:08.185Z,3.15
2023-05-23T13:14:10.004Z,2.97
2023-05-23T13:19:12.334Z,2.90
2023-05-23T13:24:14.162Z,2.65
2023-05-23T13:29:16.216Z,3.35
2023-05-23T13:34:18.052Z,3.40
2023-05-23T13:39:22.782Z,3.10
2023-05-23T13:44:24.670Z,3.15
2023-05-23T13:49:26.552Z,2.88
2023-05-23T13:54:28.406Z,2.60
2023-05-23T13:59:30.615Z,2.45
2023-05-23T14:04:33.264Z,3.08
2023-05-23T14:09:35.154Z,2.50
2023-05-23T14:14:37.222Z,2.47
2023-05-23T14:19:39.117Z,3.08
2023-05-23T14:24:41.124Z,4.00
2023-05-23T14:29:46.443Z,2.83
2023-05-23T14:34:48.381Z,2.75
2023-05-23T14:39:50.370Z,3.13
2023-05-23T14:44:55.890Z,2.83
2023-05-23T14:49:57.761Z,2.22
2023-05-23T14:55:01.075Z,2.80
2023-05-23T15:00:05.747Z,3.25
2023-05-23T15:05:07.939Z,2.90
2023-05-23T15:10:10.022Z,3.13
2023-05-23T15:15:12.041Z,3.25
2023-05-23T15:20:13.928Z,3.17
2023-05-23T15:25:15.952Z,3.25
2023-05-23T15:30:17.781Z,2.00
2023-05-23T15:35:20.308Z,2.92
2023-05-23T15:40:22.207Z,2.55
2023-05-23T15:45:24.053Z,2.58
2023-05-23T15:50:25.870Z,3.03
2023-05-23T15:55:27.699Z,3.08
2023-05-23T16:00:29.557Z,2.80
2023-05-23T16:05:31.453Z,2.85
2023-05-23T16:10:33.714Z,2.70
2023-05-23T16:15:35.820Z,3.00
2023-05-23T16:20:37.717Z,2.42
2023-05-23T16:25:39.728Z,2.67
2023-05-23T16:30:41.700Z,2.58
2023-05-23T16:35:43.714Z,3.20
2023-05-23T16:40:45.652Z,2.50
2023-05-23T16:45:47.739Z,2.33
2023-05-23T16:50:49.858Z,2.75
2023-05-23T16:55:51.911Z,2.00
2023-05-23T17:00:53.775Z,2.85
2023-05-23T17:05:55.988Z,2.65
2023-05-23T17:10:57.821Z,2.60
2023-05-23T17:15:59.676Z,2.83
2023-05-23T17:21:01.633Z,3.30
2023-05-23T17:26:03.484Z,3.03
2023-05-23T17:31:05.640Z,2.63
2023-05-23T17:36:07.621Z,3.40
2023-05-23T17:41:09.498Z,3.08
2023-05-23T17:46:11.487Z,3.08
2023-05-23T17:51:13.427Z,2.67
2023-05-23T17:56:15.734Z,2.90
2023-05-23T18:01:17.695Z,3.35
2023-05-23T18:06:19.535Z,2.45
2023-05-23T18:11:22.189Z,2.88
2023-05-23T18:16:24.016Z,3.03
2023-05-23T18:21:26.975Z,3.53
2023-05-23T18:26:29.019Z,3.67
2023-05-23T18:31:30.810Z,2.53
2023-05-23T18:36:33.057Z,2.20
2023-05-23T18:41:34.882Z,2.25
2023-05-23T18:46:36.925Z,3.00
2023-05-23T18:51:38.945Z,2.65
2023-05-23T18:56:40.837Z,2.80
2023-05-23T19:01:42.883Z,2.78
2023-05-23T19:06:45.716Z,2.58
2023-05-23T19:11:47.718Z,2.75
2023-05-23T19:16:49.740Z,2.53
2023-05-23T19:21:51.674Z,2.08
2023-05-23T19:26:53.843Z,2.15
2023-05-23T19:31:55.799Z,2.83
2023-05-23T19:36:58.017Z,2.08
2023-05-23T19:41:59.906Z,2.08
2023-05-23T19:47:01.719Z,3.05
2023-05-23T19:52:03.768Z,2.50
2023-05-23T19:57:06.148Z,2.00
2023-05-23T20:02:08.077Z,3.08
2023-05-23T20:07:09.991Z,2.25
2023-05-23T20:12:11.922Z,2.42
2023-05-23T20:17:13.790Z,2.00
2023-05-23T20:22:16.039Z,3.08
2023-05-23T20:27:17.897Z,2.40
2023-05-23T20:32:19.772Z,2.25
2023-05-23T20:37:21.812Z,2.33
2023-05-23T20:42:24.700Z,2.28
2023-05-23T20:47:26.639Z,2.30
2023-05-23T20:52:30.005Z,2.33
2023-05-23T20:57:32.498Z,2.95
2023-05-23T21:02:34.437Z,2.17
2023-05-23T21:07:36.640Z,2.53
2023-05-23T21:12:38.817Z,2.78
2023-05-23T21:17:40.632Z,2.78
2023-05-23T21:22:42.503Z,2.47
2023-05-23T21:27:44.413Z,2.33
2023-05-23T21:32:46.466Z,2.38
2023-05-23T21:37:48.355Z,3.13
2023-05-23T21:42:50.164Z,3.38
2023-05-23T21:47:52.199Z,2.35
2023-05-23T21:52:54.203Z,2.20
2023-05-23T21:57:56.023Z,2.33
2023-05-23T22:02:58.006Z,2.40
2023-05-23T22:07:59.904Z,1.60
2023-05-23T22:13:01.733Z,2.25
2023-05-23T22:18:04.336Z,1.75
2023-05-23T22:23:07.467Z,2.72
2023-05-23T22:28:09.273Z,2.35
2023-05-23T22:33:13.250Z,2.40
2023-05-23T22:38:15.144Z,2.03
2023-05-23T22:43:17.479Z,2.30
2023-05-23T22:48:19.454Z,2.58
2023-05-23T22:53:22.766Z,2.40
2023-05-23T22:58:24.991Z,2.10
2023-05-23T23:03:26.974Z,2.80
2023-05-23T23:08:28.835Z,2.15
2023-05-23T23:13:30.873Z,1.75
2023-05-23T23:18:32.693Z,2.42
2023-05-23T23:23:36.606Z,2.30
2023-05-23T23:28:38.995Z,2.30
2023-05-23T23:33:40.907Z,2.72
2023-05-23T23:38:42.700Z,2.00
2023-05-23T23:43:44.786Z,2.53
2023-05-23T23:48:46.587Z,2.33
2023-05-23T23:53:50.906Z,2.35
2023-05-23T23:58:54.402Z,2.05
